Time;durP1;ratioP1;P1;durP2;ratioP2;P2;SDS_P1;SDS_P2;PMS_P1;PMS_P2;Temp;Humidity;BMP_temperature;BMP_pressure;BME280_temperature;BME280_humidity;BME280_pressure;Samples;Min_cycle;Max_cycle;Signal;HPM_P1;HPM_P2
2022/12/25 03:07:29;;;;;;;11.87;11.07;;;8.20;99.90;;;;;;4924380;29;20215;-82
2022/12/25 03:12:49;;;;;;;12.70;11.83;;;8.10;99.90;;;;;;4900595;29;20238;-80
2022/12/25 03:18:07;;;;;;;13.73;12.83;;;8.00;99.90;;;;;;4907817;29;20346;-82
2022/12/25 03:28:52;;;;;;;14.07;12.87;;;7.70;99.90;;;;;;4902573;29;20315;-82
2022/12/25 03:31:23;;;;;;;13.87;12.77;;;7.70;99.90;;;;;;4905666;29;20224;-82
2022/12/25 03:37:15;;;;;;;12.93;12.03;;;7.60;99.90;;;;;;4901162;29;20288;-82
2022/12/25 04:38:04;;;;;;;13.03;12.13;;;7.50;99.90;;;;;;4914577;29;20271;-81
2022/12/25 04:40:32;;;;;;;13.70;12.70;;;7.50;99.90;;;;;;4888474;29;20203;-82
2022/12/25 04:42:59;;;;;;;13.13;12.23;;;7.50;99.90;;;;;;4896528;29;20295;-81
2022/12/25 04:45:26;;;;;;;14.07;13.07;;;7.50;99.90;;;;;;4904189;29;20216;-82
2022/12/25 04:47:53;;;;;;;13.53;12.60;;;7.50;99.90;;;;;;4903350;29;20314;-83
2022/12/25 04:50:20;;;;;;;13.70;12.70;;;7.50;99.90;;;;;;4907444;29;20259;-83
2022/12/25 04:52:46;;;;;;;14.03;13.07;;;7.50;99.90;;;;;;4908010;29;20795;-82
2022/12/25 04:55:13;;;;;;;13.13;12.17;;;7.50;99.90;;;;;;4899284;29;20736;-81
2022/12/25 04:57:41;;;;;;;14.13;12.97;;;7.50;99.90;;;;;;4906596;29;20208;-83
2022/12/25 05:00:09;;;;;;;14.93;13.83;;;7.50;99.90;;;;;;4900067;29;20239;-83
2022/12/25 05:02:36;;;;;;;13.43;12.53;;;7.50;99.90;;;;;;4902504;29;20283;-82
2022/12/25 05:05:04;;;;;;;14.77;13.67;;;7.60;99.90;;;;;;4905246;29;20564;-81
2022/12/25 05:07:30;;;;;;;13.73;12.83;;;7.60;99.90;;;;;;4908289;29;20230;-83
2022/12/25 05:09:57;;;;;;;14.17;13.07;;;7.60;99.90;;;;;;4905841;29;20280;-83
2022/12/25 05:12:24;;;;;;;14.73;13.67;;;7.60;99.90;;;;;;4907649;29;20279;-82
2022/12/25 05:14:52;;;;;;;14.47;13.47;;;7.60;99.90;;;;;;4898469;29;20284;-83
2022/12/25 05:17:19;;;;;;;14.10;13.10;;;7.60;99.90;;;;;;4907837;29;20199;-82
2022/12/25 05:19:46;;;;;;;14.37;13.37;;;7.60;99.90;;;;;;4918010;29;20231;-83
2022/12/25 05:22:13;;;;;;;14.57;13.47;;;7.60;99.90;;;;;;4925046;29;20224;-83
2022/12/25 05:24:39;;;;;;;14.73;13.63;;;7.70;99.90;;;;;;4905402;29;20200;-81
2022/12/25 05:27:06;;;;;;;13.93;13.03;;;7.70;99.90;;;;;;4906414;29;20219;-83
2022/12/25 05:29:33;;;;;;;13.97;12.97;;;7.70;99.90;;;;;;4907807;29;20230;-83
2022/12/25 05:32:01;;;;;;;14.37;13.33;;;7.70;99.90;;;;;;4911748;29;20243;-82
2022/12/25 05:34:28;;;;;;;14.87;13.77;;;7.70;99.90;;;;;;4906525;29;20228;-82
2022/12/25 05:36:56;;;;;;;14.47;13.37;;;7.70;99.90;;;;;;4911957;29;20283;-83
2022/12/25 05:39:23;;;;;;;15.10;13.93;;;7.70;99.90;;;;;;4909605;29;20212;-83
2022/12/25 05:41:49;;;;;;;15.10;14.00;;;7.70;99.90;;;;;;4909536;29;20291;-83
2022/12/25 05:44:16;;;;;;;15.10;13.80;;;7.70;99.90;;;;;;4902064;29;20305;-82
2022/12/25 05:46:43;;;;;;;14.50;13.50;;;7.70;99.90;;;;;;4909205;29;20200;-83
2022/12/25 05:49:12;;;;;;;15.07;13.93;;;7.70;99.90;;;;;;4909653;29;20279;-83
2022/12/25 05:51:38;;;;;;;14.90;13.80;;;7.70;99.90;;;;;;4912374;29;20224;-79
2022/12/25 05:54:05;;;;;;;17.43;16.03;;;7.70;99.90;;;;;;4937020;29;20196;-79
2022/12/25 05:56:32;;;;;;;16.20;14.90;;;7.70;99.90;;;;;;4921443;29;20192;-79
2022/12/25 05:58:59;;;;;;;16.27;15.07;;;7.70;99.90;;;;;;4909351;29;20200;-81
2022/12/25 06:01:27;;;;;;;16.47;15.23;;;7.70;99.90;;;;;;4910058;29;20235;-82
2022/12/25 06:03:54;;;;;;;16.93;15.53;;;7.70;99.90;;;;;;4901647;29;20237;-81
2022/12/25 06:06:23;;;;;;;15.50;14.30;;;7.70;99.90;;;;;;4910476;29;20260;-82
2022/12/25 06:08:50;;;;;;;16.27;15.10;;;7.70;99.90;;;;;;4909683;29;20275;-81
2022/12/25 06:11:16;;;;;;;16.10;14.80;;;7.70;99.90;;;;;;4906120;29;20223;-79
2022/12/25 06:13:44;;;;;;;16.53;15.23;;;7.70;99.90;;;;;;4906484;29;20219;-81
2022/12/25 06:16:12;;;;;;;15.77;14.57;;;7.70;99.90;;;;;;4908859;29;20216;-82
2022/12/25 06:18:41;;;;;;;16.13;14.93;;;7.70;99.90;;;;;;4907476;29;20313;-81
2022/12/25 06:21:09;;;;;;;15.90;14.70;;;7.70;99.90;;;;;;4900726;29;20255;-80
2022/12/25 06:23:37;;;;;;;15.43;14.23;;;7.70;99.90;;;;;;4907897;29;20256;-81
2022/12/25 06:26:06;;;;;;;15.70;14.50;;;7.70;99.90;;;;;;4900658;29;20224;-78
2022/12/25 06:28:33;;;;;;;15.40;14.20;;;7.70;99.90;;;;;;4899816;29;20228;-79
2022/12/25 06:31:05;;;;;;;15.97;14.40;;;7.70;99.90;;;;;;4906504;29;20227;-80
2022/12/25 06:33:32;;;;;;;15.67;14.47;;;7.70;99.90;;;;;;4907787;29;20200;-80
2022/12/25 06:35:59;;;;;;;15.33;14.13;;;7.70;99.90;;;;;;4895763;29;20218;-81
2022/12/25 06:38:26;;;;;;;16.27;14.77;;;7.70;99.90;;;;;;4896228;29;20205;-80
2022/12/25 06:40:54;;;;;;;15.97;14.77;;;7.70;99.90;;;;;;4899354;29;20303;-81
2022/12/25 06:43:21;;;;;;;16.83;15.30;;;7.70;99.90;;;;;;4910756;29;20638;-81
2022/12/25 06:45:48;;;;;;;15.20;14.03;;;7.60;99.90;;;;;;4910864;29;20212;-81
2022/12/25 06:48:15;;;;;;;15.70;14.60;;;7.60;99.90;;;;;;4904752;29;20606;-81
2022/12/25 06:50:43;;;;;;;15.90;14.73;;;7.60;99.90;;;;;;4906293;29;20203;-81
2022/12/25 06:53:09;;;;;;;16.80;15.50;;;7.60;99.90;;;;;;4909660;29;20199;-80
2022/12/25 06:55:36;;;;;;;15.70;14.47;;;7.60;99.90;;;;;;4908335;29;20719;-80
2022/12/25 06:58:04;;;;;;;15.23;13.97;;;7.60;99.90;;;;;;4907033;29;20618;-81
2022/12/25 07:00:31;;;;;;;16.77;15.47;;;7.60;99.90;;;;;;4906839;29;20212;-81
2022/12/25 07:02:58;;;;;;;16.00;14.80;;;7.60;99.90;;;;;;4906765;29;20211;-81
2022/12/25 07:05:25;;;;;;;15.40;14.20;;;7.60;99.90;;;;;;4907683;29;20199;-80
2022/12/25 07:07:51;;;;;;;16.17;14.87;;;7.60;99.90;;;;;;4906655;29;20732;-82
2022/12/25 07:10:18;;;;;;;15.37;14.17;;;7.60;99.90;;;;;;4903121;29;20212;-81
2022/12/25 07:12:45;;;;;;;14.53;13.50;;;7.60;99.90;;;;;;4905725;29;20788;-82
2022/12/25 07:15:13;;;;;;;14.47;13.47;;;7.60;99.90;;;;;;4906816;29;20216;-81
2022/12/25 07:17:40;;;;;;;14.87;13.87;;;7.70;99.90;;;;;;4906417;29;20723;-79
2022/12/25 07:20:08;;;;;;;15.13;14.07;;;7.70;99.90;;;;;;4906811;29;20201;-79
2022/12/25 07:22:35;;;;;;;14.63;13.63;;;7.70;99.90;;;;;;4899382;29;20243;-81
2022/12/25 07:25:02;;;;;;;15.70;14.60;;;7.70;99.90;;;;;;4895617;29;20208;-83
2022/12/25 07:27:28;;;;;;;16.63;15.33;;;7.70;99.90;;;;;;4899200;29;20196;-82
2022/12/25 07:29:55;;;;;;;15.80;14.70;;;7.70;99.90;;;;;;4904866;29;20678;-81
2022/12/25 07:32:23;;;;;;;16.27;14.97;;;7.70;99.90;;;;;;4907887;29;20671;-79
2022/12/25 07:34:50;;;;;;;16.63;15.33;;;7.70;99.90;;;;;;4907224;29;20210;-79
2022/12/25 07:37:17;;;;;;;17.10;15.80;;;7.70;99.90;;;;;;4908872;29;20239;-78
2022/12/25 07:39:44;;;;;;;15.20;14.00;;;7.70;99.90;;;;;;4910537;29;20211;-79
2022/12/25 07:42:10;;;;;;;15.77;14.70;;;7.80;99.90;;;;;;4897038;29;20322;-82
2022/12/25 07:44:37;;;;;;;16.70;15.40;;;7.80;99.90;;;;;;4910304;29;20400;-80
2022/12/25 07:47:04;;;;;;;16.20;15.00;;;7.80;99.90;;;;;;4913381;29;20200;-82
2022/12/25 07:49:32;;;;;;;15.60;14.43;;;7.80;99.90;;;;;;4904072;29;20216;-81
2022/12/25 07:51:59;;;;;;;16.17;14.97;;;7.80;99.90;;;;;;4906574;29;20284;-81
2022/12/25 07:54:26;;;;;;;16.83;15.50;;;7.70;99.90;;;;;;4910600;29;20630;-81
2022/12/25 07:56:53;;;;;;;17.13;15.70;;;7.70;99.90;;;;;;4902650;29;20266;-82
2022/12/25 07:59:20;;;;;;;17.77;16.33;;;7.60;99.90;;;;;;4905178;29;20204;-83
2022/12/25 08:01:49;;;;;;;17.20;15.80;;;7.60;99.90;;;;;;4909438;29;20251;-81
2022/12/25 08:04:15;;;;;;;17.60;16.20;;;7.50;99.90;;;;;;4911311;29;20210;-78
2022/12/25 08:06:44;;;;;;;18.40;16.97;;;7.50;99.90;;;;;;4895348;29;20203;-79
2022/12/25 08:09:12;;;;;;;17.60;16.30;;;7.60;99.90;;;;;;4896338;29;20283;-79
2022/12/25 08:11:44;;;;;;;17.33;16.03;;;7.70;99.90;;;;;;4896861;29;20299;-81
2022/12/25 08:14:10;;;;;;;16.83;15.63;;;7.80;99.90;;;;;;4902976;29;20343;-78
2022/12/25 08:16:40;;;;;;;16.40;15.13;;;8.00;99.90;;;;;;4900998;29;20256;-79
2022/12/25 08:19:07;;;;;;;15.67;14.57;;;8.10;99.90;;;;;;4905097;29;20204;-83
2022/12/25 08:21:33;;;;;;;16.50;15.10;;;8.20;99.90;;;;;;4894508;29;20231;-81
2022/12/25 08:24:02;;;;;;;15.57;14.37;;;8.30;99.90;;;;;;4898729;29;20295;-79
2022/12/25 08:26:29;;;;;;;15.60;14.40;;;8.30;99.90;;;;;;4899225;29;20204;-79
2022/12/25 08:28:56;;;;;;;14.83;13.60;;;8.30;99.90;;;;;;4899949;29;20858;-79
2022/12/25 08:31:24;;;;;;;14.50;13.40;;;8.40;99.90;;;;;;4899904;29;20260;-82
2022/12/25 08:33:53;;;;;;;14.10;13.10;;;8.40;99.90;;;;;;4897501;29;20208;-83
2022/12/25 08:36:21;;;;;;;14.50;13.50;;;8.40;99.90;;;;;;4907008;29;20228;-81
2022/12/25 08:38:48;;;;;;;14.80;13.70;;;8.50;99.90;;;;;;4894318;29;20205;-81
2022/12/25 08:41:17;;;;;;;15.10;14.10;;;8.70;99.90;;;;;;4897891;29;20228;-80
2022/12/25 08:43:44;;;;;;;15.40;14.40;;;8.90;99.90;;;;;;4887699;29;20201;-81
2022/12/25 08:46:11;;;;;;;15.20;14.17;;;9.00;99.90;;;;;;4900061;29;20200;-81
2022/12/25 08:48:41;;;;;;;15.13;13.93;;;9.20;99.90;;;;;;4898489;29;20224;-79
2022/12/25 08:51:13;;;;;;;15.80;14.70;;;9.40;99.90;;;;;;4899050;29;20216;-81
2022/12/25 08:53:40;;;;;;;16.53;15.37;;;9.50;99.90;;;;;;4900598;29;20205;-77
2022/12/25 08:56:07;;;;;;;15.57;14.57;;;9.40;99.90;;;;;;4900906;29;20200;-80
2022/12/25 08:58:35;;;;;;;14.77;13.77;;;9.30;99.90;;;;;;4901972;29;20235;-79
2022/12/25 09:01:02;;;;;;;15.37;14.17;;;9.40;99.90;;;;;;4897824;29;20232;-79
2022/12/25 09:03:31;;;;;;;15.43;14.33;;;9.40;99.90;;;;;;4904205;29;20208;-79
2022/12/25 09:06:02;;;;;;;14.03;13.13;;;9.40;99.90;;;;;;4895219;29;20232;-79
2022/12/25 09:08:29;;;;;;;14.47;13.47;;;9.50;99.90;;;;;;4913737;29;20221;-79
2022/12/25 09:10:56;;;;;;;14.83;13.80;;;9.50;99.90;;;;;;4898104;29;20224;-81
2022/12/25 09:13:23;;;;;;;14.73;13.77;;;9.50;99.90;;;;;;4899912;29;20200;-80
2022/12/25 09:15:51;;;;;;;14.70;13.70;;;9.50;99.90;;;;;;4900564;29;20227;-80
2022/12/25 09:18:18;;;;;;;15.10;14.00;;;9.50;99.90;;;;;;4902014;29;20196;-80
2022/12/25 09:20:45;;;;;;;14.67;13.67;;;9.60;99.90;;;;;;4900588;29;20256;-81
2022/12/25 09:23:11;;;;;;;14.03;13.13;;;9.60;99.90;;;;;;4897201;29;20224;-81
2022/12/25 09:25:38;;;;;;;14.60;13.67;;;9.60;99.90;;;;;;4899266;29;20205;-80
2022/12/25 09:28:05;;;;;;;14.93;13.93;;;9.60;99.90;;;;;;4901770;29;20737;-78
2022/12/25 09:30:32;;;;;;;15.40;14.40;;;9.60;99.90;;;;;;4910195;29;20232;-80
2022/12/25 09:33:00;;;;;;;15.40;14.20;;;9.60;99.90;;;;;;4899385;29;20204;-80
2022/12/25 09:35:27;;;;;;;14.73;13.77;;;9.60;99.90;;;;;;4895858;29;20200;-80
2022/12/25 09:37:53;;;;;;;15.03;13.90;;;9.60;99.90;;;;;;4899255;29;20245;-80
2022/12/25 09:40:21;;;;;;;15.00;13.80;;;9.60;99.90;;;;;;4896290;29;20244;-81
2022/12/25 09:42:49;;;;;;;13.97;13.03;;;9.60;99.90;;;;;;4906608;29;20327;-83
2022/12/25 09:45:20;;;;;;;13.87;12.97;;;9.60;99.90;;;;;;4898619;29;20288;-83
2022/12/25 09:47:49;;;;;;;14.63;13.63;;;9.60;99.90;;;;;;4894765;29;20229;-80
2022/12/25 09:50:22;;;;;;;13.17;12.27;;;9.70;99.90;;;;;;4901578;29;20288;-80
2022/12/25 09:52:54;;;;;;;14.00;13.00;;;9.70;99.90;;;;;;4907585;29;20264;-78
2022/12/25 09:55:24;;;;;;;14.10;13.20;;;9.70;99.90;;;;;;4892802;29;20197;-79
2022/12/25 09:57:52;;;;;;;14.07;13.07;;;9.80;99.90;;;;;;4899537;29;20695;-81
2022/12/25 10:00:22;;;;;;;13.90;13.00;;;9.90;99.90;;;;;;4899300;29;20200;-80
2022/12/25 10:03:08;;;;;;;13.43;12.43;;;9.90;99.90;;;;;;4899765;29;20216;-81
2022/12/25 10:05:55;;;;;;;13.93;13.03;;;10.00;99.90;;;;;;4911760;29;20208;-82
2022/12/25 10:08:34;;;;;;;13.30;12.50;;;10.00;99.90;;;;;;4899049;29;20621;-82
2022/12/25 10:11:07;;;;;;;13.90;13.00;;;10.10;99.90;;;;;;4897174;29;20303;-80
2022/12/25 10:14:00;;;;;;;13.33;12.53;;;10.20;99.90;;;;;;4892109;29;20624;-83
2022/12/25 10:16:34;;;;;;;13.17;12.37;;;10.20;99.90;;;;;;4891828;29;20207;-82
2022/12/25 10:19:32;;;;;;;12.90;12.10;;;10.30;99.90;;;;;;4900699;29;20205;-81
2022/12/25 10:22:08;;;;;;;14.27;13.30;;;10.30;99.90;;;;;;4897608;29;20217;-80
2022/12/25 10:24:40;;;;;;;13.40;12.33;;;10.30;99.90;;;;;;4898917;29;20634;-82
2022/12/25 10:27:14;;;;;;;13.50;12.50;;;10.30;99.90;;;;;;4899018;29;20200;-80
2022/12/25 10:29:42;;;;;;;13.87;12.77;;;10.40;99.90;;;;;;4896095;29;20224;-80
2022/12/25 10:32:10;;;;;;;15.30;14.10;;;10.40;99.90;;;;;;4907046;29;20255;-81
2022/12/25 10:34:40;;;;;;;14.60;13.50;;;10.50;99.90;;;;;;4905736;29;20207;-81
2022/12/25 10:37:10;;;;;;;14.10;13.20;;;10.60;99.90;;;;;;4904763;29;20205;-80
2022/12/25 10:39:37;;;;;;;15.20;14.20;;;10.60;99.90;;;;;;4904894;29;20601;-81
2022/12/25 10:42:33;;;;;;;15.73;14.63;;;10.70;99.90;;;;;;4904650;29;20224;-80
2022/12/25 10:45:02;;;;;;;17.53;16.10;;;10.90;99.90;;;;;;4907099;29;20258;-81
2022/12/25 10:47:32;;;;;;;18.57;17.00;;;11.00;99.90;;;;;;4905354;29;20205;-80
2022/12/25 10:50:01;;;;;;;15.70;14.57;;;11.10;99.90;;;;;;4914637;29;20223;-81
2022/12/25 10:52:29;;;;;;;15.70;14.50;;;11.10;99.90;;;;;;4904750;29;20286;-82
2022/12/25 10:54:56;;;;;;;14.60;13.60;;;11.20;99.90;;;;;;4906085;29;20257;-81
2022/12/25 10:57:25;;;;;;;15.20;14.10;;;11.30;99.90;;;;;;4903087;29;20229;-80
2022/12/25 10:59:54;;;;;;;14.07;13.10;;;11.30;99.90;;;;;;4910372;29;20209;-81
2022/12/25 11:02:25;;;;;;;12.33;11.60;;;11.40;99.90;;;;;;4904202;29;20231;-81
2022/12/25 11:05:00;;;;;;;12.53;11.73;;;11.50;99.90;;;;;;4904995;29;20254;-81
2022/12/25 11:07:28;;;;;;;13.57;12.60;;;11.50;99.90;;;;;;4904680;29;20224;-82
2022/12/25 11:09:57;;;;;;;12.87;12.07;;;11.60;99.90;;;;;;4905266;29;20211;-80
2022/12/25 11:12:30;;;;;;;13.43;12.57;;;11.60;99.90;;;;;;4905803;29;20310;-81
2022/12/25 11:14:59;;;;;;;12.93;12.13;;;11.70;99.90;;;;;;4905703;29;20210;-81
2022/12/25 11:17:27;;;;;;;12.77;11.97;;;11.90;99.90;;;;;;4904673;29;20326;-82
2022/12/25 11:19:55;;;;;;;12.07;11.37;;;11.90;99.90;;;;;;4906069;29;20262;-82
2022/12/25 11:22:22;;;;;;;12.30;11.60;;;12.10;99.90;;;;;;4904676;29;20230;-81
2022/12/25 11:24:51;;;;;;;12.03;11.33;;;12.10;99.90;;;;;;4903588;29;20643;-81
2022/12/25 11:27:24;;;;;;;12.27;11.57;;;12.10;99.90;;;;;;4906613;29;20644;-82
2022/12/25 11:29:54;;;;;;;12.77;11.97;;;12.10;99.90;;;;;;4904041;29;20220;-80
2022/12/25 11:32:26;;;;;;;12.30;11.60;;;12.20;99.90;;;;;;4904993;29;20722;-81
2022/12/25 11:34:55;;;;;;;12.00;11.30;;;12.30;99.90;;;;;;4905790;29;20203;-81
2022/12/25 11:37:26;;;;;;;11.90;11.20;;;12.30;99.90;;;;;;4908806;29;20251;-82
2022/12/25 11:39:55;;;;;;;10.47;9.83;;;12.40;99.90;;;;;;4907057;29;20203;-82
2022/12/25 11:42:25;;;;;;;7.03;6.53;;;12.30;99.90;;;;;;4901030;29;20330;-82
2022/12/25 11:44:56;;;;;;;9.30;8.70;;;12.40;99.90;;;;;;4904647;29;20204;-81
2022/12/25 11:47:27;;;;;;;7.13;6.63;;;12.50;99.90;;;;;;4905610;29;20626;-81
2022/12/25 11:49:59;;;;;;;6.17;5.73;;;12.50;99.90;;;;;;4905607;29;20628;-82
2022/12/25 11:52:29;;;;;;;6.30;5.90;;;12.60;99.90;;;;;;4907181;29;20647;-81
2022/12/25 11:55:02;;;;;;;9.23;8.63;;;12.80;99.90;;;;;;4906218;29;20279;-81
2022/12/25 11:57:30;;;;;;;11.80;11.10;;;12.80;99.90;;;;;;4908150;29;20233;-80
2022/12/25 12:00:02;;;;;;;11.70;11.00;;;12.80;99.90;;;;;;4904705;29;20579;-82
2022/12/25 12:02:36;;;;;;;11.90;11.20;;;12.90;99.90;;;;;;4895605;29;20227;-81
2022/12/25 12:05:16;;;;;;;11.60;10.90;;;12.90;99.90;;;;;;4907638;29;20208;-81
2022/12/25 12:07:53;;;;;;;11.10;10.50;;;12.90;99.90;;;;;;4906348;29;20668;-80
2022/12/25 12:10:29;;;;;;;12.30;11.50;;;12.90;99.90;;;;;;4902264;29;20220;-81
2022/12/25 12:13:04;;;;;;;5.90;5.50;;;13.00;99.90;;;;;;4902326;29;20581;-80
2022/12/25 12:15:41;;;;;;;6.67;6.17;;;13.00;99.90;;;;;;4907311;29;20251;-81
2022/12/25 12:18:09;;;;;;;6.40;5.90;;;13.00;99.90;;;;;;4908793;29;20207;-82
2022/12/25 12:20:37;;;;;;;6.40;5.90;;;13.00;99.90;;;;;;4908024;29;20264;-80
2022/12/25 12:23:13;;;;;;;5.90;5.50;;;12.90;99.90;;;;;;4918341;29;20204;-80
2022/12/25 12:25:45;;;;;;;6.30;5.70;;;12.90;99.90;;;;;;4911115;29;20677;-82
2022/12/25 12:28:21;;;;;;;6.77;6.17;;;12.90;99.90;;;;;;4912509;29;20701;-82
2022/12/25 12:30:58;;;;;;;10.10;9.40;;;12.80;99.90;;;;;;4912242;29;20342;-82
2022/12/25 12:33:30;;;;;;;8.43;7.83;;;12.80;99.90;;;;;;4911447;29;20210;-80
2022/12/25 12:35:57;;;;;;;7.67;7.07;;;12.80;99.90;;;;;;4913157;29;20233;-82
2022/12/25 12:38:25;;;;;;;11.70;10.90;;;12.90;99.90;;;;;;4910751;29;20226;-82
2022/12/25 12:40:57;;;;;;;5.83;5.43;;;12.90;99.90;;;;;;4910364;29;20315;-81
2022/12/25 12:43:30;;;;;;;11.97;11.17;;;13.00;99.90;;;;;;4904466;29;20200;-80
2022/12/25 12:46:01;;;;;;;5.70;5.30;;;13.00;99.90;;;;;;4907045;29;20216;-81
2022/12/25 12:48:30;;;;;;;5.57;5.17;;;13.10;99.90;;;;;;4901661;29;20210;-80
2022/12/25 12:51:03;;;;;;;7.23;6.73;;;13.20;99.90;;;;;;4908325;29;20735;-80
2022/12/25 12:53:32;;;;;;;5.50;5.10;;;13.20;99.90;;;;;;4912033;29;20266;-82
2022/12/25 12:56:15;;;;;;;7.80;7.30;;;13.20;99.90;;;;;;4908997;29;20220;-81
2022/12/25 12:58:47;;;;;;;8.67;8.07;;;13.30;99.90;;;;;;4907499;29;20200;-82
2022/12/25 13:01:47;;;;;;;8.00;7.50;;;13.40;99.90;;;;;;4909996;29;20249;-80
2022/12/25 13:04:32;;;;;;;8.50;7.90;;;13.60;99.90;;;;;;4911101;29;20204;-81
2022/12/25 13:07:10;;;;;;;8.13;7.63;;;13.70;99.90;;;;;;4909704;29;20232;-82
2022/12/25 13:09:49;;;;;;;10.87;10.27;;;13.80;99.90;;;;;;4904457;29;20740;-81
2022/12/25 13:12:18;;;;;;;10.27;9.67;;;13.90;99.90;;;;;;4908720;29;20232;-81
2022/12/25 13:14:47;;;;;;;5.40;5.00;;;14.00;99.90;;;;;;4908837;29;20201;-82
2022/12/25 13:17:19;;;;;;;5.37;4.97;;;14.00;99.90;;;;;;4907269;29;20205;-82
2022/12/25 13:19:48;;;;;;;5.60;5.20;;;14.10;99.90;;;;;;4906369;29;20658;-82
2022/12/25 13:22:24;;;;;;;8.90;8.40;;;14.20;99.90;;;;;;4909695;29;20217;-82
2022/12/25 13:25:01;;;;;;;5.00;4.70;;;14.20;99.90;;;;;;4908761;29;20580;-81
2022/12/25 13:27:32;;;;;;;6.77;6.27;;;14.20;99.90;;;;;;4916931;29;20237;-81
2022/12/25 13:30:12;;;;;;;5.57;5.27;;;14.20;99.90;;;;;;4904049;29;20208;-80
2022/12/25 13:32:40;;;;;;;9.17;8.57;;;14.10;99.90;;;;;;4908261;29;20224;-82
2022/12/25 13:35:12;;;;;;;9.97;9.37;;;14.10;99.90;;;;;;4908977;29;20210;-82
2022/12/25 13:37:39;;;;;;;10.07;9.50;;;14.10;99.90;;;;;;4905388;29;20210;-81
2022/12/25 13:40:18;;;;;;;10.50;9.90;;;14.10;99.90;;;;;;4903413;29;20200;-81
2022/12/25 13:42:47;;;;;;;10.20;9.60;;;14.10;99.90;;;;;;4923679;29;20235;-81
2022/12/25 13:45:23;;;;;;;10.13;9.63;;;14.20;99.90;;;;;;4906036;29;20205;-82
2022/12/25 13:47:50;;;;;;;10.33;9.73;;;14.20;99.90;;;;;;4922201;29;20218;-81
2022/12/25 13:50:22;;;;;;;10.43;9.83;;;14.20;99.90;;;;;;4908016;29;20256;-80
2022/12/25 13:52:50;;;;;;;10.70;10.00;;;14.10;99.90;;;;;;4902856;29;20252;-82
2022/12/25 13:55:19;;;;;;;10.60;10.00;;;14.00;99.90;;;;;;4907341;29;20259;-81
2022/12/25 13:57:54;;;;;;;10.40;9.80;;;14.00;99.90;;;;;;4904958;29;20597;-82
2022/12/25 14:00:28;;;;;;;10.60;10.00;;;13.90;99.90;;;;;;4909575;29;20258;-82
2022/12/25 14:02:55;;;;;;;10.73;10.03;;;13.90;99.90;;;;;;4910142;29;20672;-81
2022/12/25 14:05:25;;;;;;;10.87;10.17;;;13.90;99.90;;;;;;4905071;29;20753;-81
2022/12/25 14:07:53;;;;;;;10.60;10.00;;;13.90;99.90;;;;;;4903995;29;20269;-81
2022/12/25 14:10:20;;;;;;;10.43;9.83;;;13.90;99.90;;;;;;4905928;29;20216;-81
2022/12/25 14:12:51;;;;;;;10.00;9.47;;;13.90;99.90;;;;;;4906271;29;20311;-82
2022/12/25 14:15:21;;;;;;;10.20;9.60;;;14.00;99.90;;;;;;4909120;29;20197;-81
2022/12/25 14:17:48;;;;;;;10.10;9.50;;;13.90;99.90;;;;;;4906820;29;20218;-81
2022/12/25 14:20:24;;;;;;;10.30;9.60;;;13.90;99.90;;;;;;4908274;29;20200;-80
2022/12/25 14:22:53;;;;;;;10.20;9.60;;;13.90;99.90;;;;;;4906629;29;20212;-81
2022/12/25 14:25:22;;;;;;;9.90;9.40;;;13.90;99.90;;;;;;4902434;29;20260;-82
2022/12/25 14:27:52;;;;;;;10.10;9.50;;;13.90;99.90;;;;;;4918731;29;20260;-80
2022/12/25 14:30:19;;;;;;;10.27;9.67;;;13.80;99.90;;;;;;4906806;29;20219;-81
2022/12/25 14:32:49;;;;;;;9.80;9.20;;;13.80;99.90;;;;;;4921961;29;20247;-81
2022/12/25 14:35:17;;;;;;;10.37;9.77;;;13.80;99.90;;;;;;4907170;29;20205;-81
2022/12/25 14:37:44;;;;;;;10.17;9.57;;;13.80;99.90;;;;;;4905706;29;20216;-81
2022/12/25 14:40:22;;;;;;;10.77;10.17;;;13.70;99.90;;;;;;4907689;29;20220;-81
2022/12/25 14:42:57;;;;;;;10.57;9.90;;;13.60;99.90;;;;;;4904208;29;20220;-81
2022/12/25 14:45:30;;;;;;;10.50;9.90;;;13.60;99.90;;;;;;4902709;29;20196;-82
2022/12/25 14:47:59;;;;;;;10.70;10.07;;;13.50;99.90;;;;;;4909002;29;20240;-82
2022/12/25 14:50:28;;;;;;;10.40;9.80;;;13.40;99.90;;;;;;4904800;29;20212;-81
2022/12/25 14:52:55;;;;;;;10.70;10.07;;;13.40;99.90;;;;;;4905239;29;20612;-81
2022/12/25 14:55:25;;;;;;;10.90;10.30;;;13.30;99.90;;;;;;4906253;29;20207;-81
2022/12/25 14:57:57;;;;;;;11.37;10.70;;;13.30;99.90;;;;;;4904942;29;20280;-81
2022/12/25 15:00:27;;;;;;;11.70;11.00;;;13.20;99.90;;;;;;4905542;29;20720;-80
2022/12/25 15:02:57;;;;;;;10.70;10.10;;;13.20;99.90;;;;;;4904830;29;20265;-80
2022/12/25 15:05:33;;;;;;;10.63;10.03;;;13.10;99.90;;;;;;4905109;29;20192;-81
2022/12/25 15:08:19;;;;;;;10.43;9.83;;;13.00;99.90;;;;;;4901741;29;20240;-81
2022/12/25 15:10:46;;;;;;;10.50;9.90;;;12.90;99.90;;;;;;4888625;29;20236;-81
2022/12/25 15:13:18;;;;;;;10.40;9.80;;;12.80;99.90;;;;;;4906352;29;20201;-83
2022/12/25 15:15:52;;;;;;;10.63;9.97;;;12.70;99.90;;;;;;4897110;29;20285;-82
2022/12/25 15:18:21;;;;;;;10.67;10.07;;;12.70;99.90;;;;;;4899388;29;20204;-78
2022/12/25 15:20:51;;;;;;;10.40;9.80;;;12.60;99.90;;;;;;4889799;29;20217;-78
2022/12/25 15:23:21;;;;;;;10.77;10.07;;;12.50;99.90;;;;;;4896957;29;20208;-77
2022/12/25 15:25:49;;;;;;;10.27;9.67;;;12.40;99.90;;;;;;4905370;29;20204;-77
2022/12/25 15:28:18;;;;;;;10.37;9.77;;;12.40;99.90;;;;;;4909652;29;20211;-78
2022/12/25 15:30:45;;;;;;;10.43;9.83;;;12.30;99.90;;;;;;4904416;29;20358;-77
2022/12/25 15:33:14;;;;;;;10.60;9.90;;;12.20;99.90;;;;;;4906186;29;20208;-78
2022/12/25 15:35:43;;;;;;;10.70;10.10;;;12.00;99.90;;;;;;4908644;29;20199;-79
2022/12/25 15:38:10;;;;;;;10.80;10.13;;;11.90;99.90;;;;;;4904766;29;20227;-78
2022/12/25 15:40:37;;;;;;;11.10;10.40;;;11.70;99.90;;;;;;4909741;29;20196;-78
2022/12/25 15:43:04;;;;;;;11.00;10.30;;;11.60;99.90;;;;;;4909616;29;20209;-84
2022/12/25 15:45:32;;;;;;;11.40;10.70;;;11.50;99.90;;;;;;4904067;29;20216;-83
2022/12/25 15:47:59;;;;;;;12.03;11.23;;;11.40;99.90;;;;;;4912104;29;20208;-82
2022/12/25 15:50:26;;;;;;;12.00;11.30;;;11.40;99.90;;;;;;4905475;29;20198;-78
2022/12/25 15:52:52;;;;;;;11.33;10.63;;;11.40;99.90;;;;;;4908517;29;20218;-81
2022/12/25 15:55:19;;;;;;;11.70;10.90;;;11.30;99.90;;;;;;4897638;29;20217;-79
2022/12/25 15:57:47;;;;;;;12.27;11.37;;;11.30;99.90;;;;;;4901916;29;20262;-78
2022/12/25 16:00:18;;;;;;;11.90;11.13;;;11.30;99.90;;;;;;4905258;29;20214;-79
2022/12/25 16:02:46;;;;;;;12.07;11.27;;;11.30;99.90;;;;;;4908139;29;20237;-78
2022/12/25 16:05:13;;;;;;;12.47;11.47;;;11.30;99.90;;;;;;4908259;29;20632;-79
2022/12/25 16:07:40;;;;;;;12.90;12.00;;;11.30;99.90;;;;;;4910148;29;20206;-79
2022/12/25 16:10:13;;;;;;;12.47;11.67;;;11.30;99.90;;;;;;4904591;29;20257;-80
2022/12/25 16:12:40;;;;;;;12.13;11.33;;;11.30;99.90;;;;;;4909164;29;20647;-80
2022/12/25 16:15:09;;;;;;;12.30;11.47;;;11.30;99.90;;;;;;4907703;29;20197;-79
2022/12/25 16:17:35;;;;;;;11.57;10.87;;;11.30;99.90;;;;;;4909540;29;20202;-79
2022/12/25 16:20:04;;;;;;;11.27;10.57;;;11.40;99.90;;;;;;4907806;29;20901;-79
2022/12/25 16:22:38;;;;;;;11.70;10.90;;;11.40;99.90;;;;;;4910123;29;20217;-79
2022/12/25 16:25:07;;;;;;;11.80;11.00;;;11.40;99.90;;;;;;4907836;29;20305;-79
2022/12/25 16:27:34;;;;;;;11.97;11.17;;;11.50;99.90;;;;;;4906890;29;20639;-79
2022/12/25 16:30:01;;;;;;;12.20;11.40;;;11.50;99.90;;;;;;4908367;29;20210;-80
2022/12/25 16:32:28;;;;;;;12.97;11.80;;;11.40;99.90;;;;;;4897617;29;20317;-79
2022/12/25 16:34:54;;;;;;;12.37;11.50;;;11.50;99.90;;;;;;4906475;29;20208;-79
2022/12/25 16:37:26;;;;;;;12.43;11.53;;;11.50;99.90;;;;;;4908567;29;20238;-79
2022/12/25 16:39:56;;;;;;;11.60;10.87;;;11.50;99.90;;;;;;4906530;29;20202;-79
2022/12/25 16:42:23;;;;;;;12.37;11.57;;;11.50;99.90;;;;;;4912694;29;20221;-80
2022/12/25 16:44:50;;;;;;;12.70;11.80;;;11.50;99.90;;;;;;4893513;29;20259;-79
2022/12/25 16:47:16;;;;;;;12.57;11.67;;;11.40;99.90;;;;;;4900445;29;20242;-78
2022/12/25 16:49:43;;;;;;;14.07;12.97;;;11.40;99.90;;;;;;4910005;29;20704;-78
2022/12/25 16:52:10;;;;;;;14.20;13.20;;;11.20;99.90;;;;;;4907041;29;20252;-79
2022/12/25 16:54:38;;;;;;;14.83;13.83;;;11.10;99.90;;;;;;4912899;29;20197;-78
2022/12/25 16:57:05;;;;;;;14.77;13.67;;;11.00;99.90;;;;;;4908543;29;20206;-78
2022/12/25 16:59:33;;;;;;;15.60;14.30;;;10.80;99.90;;;;;;4914246;29;20629;-79
2022/12/25 17:02:00;;;;;;;14.87;13.77;;;10.70;99.90;;;;;;4907397;29;20793;-79
2022/12/25 17:04:27;;;;;;;14.73;13.63;;;10.70;99.90;;;;;;4914454;29;20201;-79
2022/12/25 17:06:54;;;;;;;14.70;13.70;;;10.60;99.90;;;;;;4913949;29;20230;-79
2022/12/25 17:09:21;;;;;;;14.13;13.13;;;10.50;99.90;;;;;;4914109;29;20205;-77